Wayne, NE

10:05 AM CST on December 09, 2016 (GMT -0600)
Courthouse Hill | | Change Station

Elev 1512 ft 42.23 °N, 97.02 °W | Updated 26 seconds ago

Overcast
Overcast
6.6 °F
Feels Like 7 °F
N
0.0
Wind Variable Wind from SSE
Gusts 0.0 mph

Today
High -- | Low -- °F
--% Chance of Precip.
Yesterday
High -- | Low -- °F
Precip. -- in
Pressure 30.58 in
Visibility 10.0 miles
Clouds Overcast 7000 ft
Windchill 7 °F
Dew Point -3 °F
Humidity 65%
Rainfall 0.00 in
Snow Depth Not available.
7:45 AM 4:55 PM
Waxing Gibbous, 75% visible
METAR KLCG 091555Z AUTO 00000KT 10SM OVC070 M14/M17 A3058 RMK AO2 T11401167
Pressure 30.58 in
Visibility 10.0 miles
Clouds Overcast 7000 ft
Windchill 7 °F
Dew Point -3 °F
Humidity 65%
Rainfall 0.00 in
Snow Depth Not available.
7:45 AM 4:55 PM
Waxing Gibbous, 75% visible
METAR KLCG 091555Z AUTO 00000KT 10SM OVC070 M14/M17 A3058 RMK AO2 T11401167

10-Day Weather Forecast

Almanac

Astronomy

Dec. 09, 2016 Rise Set
Actual Time
Civil Twilight
Nautical Twilight
Astronomical Twilight
Moon
Length of Visible Light
Length of Day
Tomorrow will be .
, % of the Moon is Illuminated

Today's Extremes

State Highs State Lows

Community

WunderPhotos

Upload Photos

1,956,462 photos uploaded!

WunderBlog® & News

Nearby

Air Quality

  Air Quality AQ Index Pollutant
Not available.

Snow Depth

Station Depth Elevation

Earthquake Activity

City Distance Mag. Time & Date
Minimum magnitude displayed is 2.5.

Coastal Water Temperatures

Place Temperature

Stations

Nearby Weather Stations

Station Location Temp. Windchill Dew Point Humidity Wind Precip. Elev Updated Type
                   

Watches & Warnings

There are currently no watches in effect.